createdAt,value
2023-02-05T00:01:35.625Z,8.85
2023-02-05T00:04:02.536Z,9.40
2023-02-05T00:06:29.561Z,10.10
2023-02-05T00:08:57.597Z,9.32
2023-02-05T00:11:24.881Z,8.10
2023-02-05T00:13:51.830Z,7.70
2023-02-05T00:16:20.596Z,7.60
2023-02-05T00:18:47.744Z,7.53
2023-02-05T00:21:15.588Z,8.05
2023-02-05T00:23:42.641Z,8.35
2023-02-05T00:26:15.996Z,7.90
2023-02-05T00:28:43.169Z,8.18
2023-02-05T00:31:12.931Z,6.97
2023-02-05T00:33:40.057Z,6.80
2023-02-05T00:36:07.877Z,7.03
2023-02-05T00:38:35.176Z,6.70
2023-02-05T00:41:02.462Z,6.50
2023-02-05T00:43:29.389Z,6.25
2023-02-05T00:45:56.163Z,5.80
2023-02-05T00:48:23.225Z,6.30
2023-02-05T00:50:51.144Z,5.90
2023-02-05T00:53:19.545Z,5.80
2023-02-05T00:55:46.528Z,5.80
2023-02-05T00:58:13.382Z,5.63
2023-02-05T01:00:40.122Z,5.45
2023-02-05T01:03:07.127Z,5.72
2023-02-05T01:05:35.651Z,5.60
2023-02-05T01:08:03.458Z,5.60
2023-02-05T01:10:30.245Z,6.30
2023-02-05T01:12:57.280Z,6.03
2023-02-05T01:15:24.052Z,5.55
2023-02-05T01:17:50.864Z,5.57
2023-02-05T01:20:18.964Z,5.50
2023-02-05T01:22:45.805Z,5.20
2023-02-05T01:25:12.588Z,5.40
2023-02-05T01:27:39.417Z,5.97
2023-02-05T01:30:07.310Z,5.70
2023-02-05T01:32:34.192Z,6.10
2023-02-05T01:35:01.028Z,5.60
2023-02-05T01:37:27.722Z,5.95
2023-02-05T01:39:54.504Z,5.20
2023-02-05T01:42:27.325Z,6.25
2023-02-05T01:45:22.063Z,5.97
2023-02-05T01:47:54.753Z,6.50
2023-02-05T01:50:41.246Z,5.03
2023-02-05T01:53:21.327Z,5.55
2023-02-05T01:55:54.637Z,5.20
2023-02-05T01:58:22.985Z,5.50
2023-02-05T02:00:49.887Z,5.47
2023-02-05T02:03:16.838Z,5.50
2023-02-05T02:05:43.895Z,5.20
2023-02-05T02:08:13.060Z,5.35
2023-02-05T02:10:43.220Z,5.18
2023-02-05T02:13:12.478Z,5.90
2023-02-05T02:15:40.705Z,4.90
2023-02-05T02:18:27.230Z,5.50
2023-02-05T02:21:12.799Z,5.05
2023-02-05T02:24:10.698Z,5.53
2023-02-05T02:27:19.695Z,5.30
2023-02-05T02:30:05.383Z,5.78
2023-02-05T02:33:14.733Z,5.90
2023-02-05T02:35:51.515Z,6.43
2023-02-05T02:38:26.991Z,7.00
2023-02-05T02:41:00.174Z,8.65
2023-02-05T02:43:32.435Z,7.40
2023-02-05T02:46:06.882Z,7.80
2023-02-05T02:48:38.003Z,6.65
2023-02-05T02:51:09.430Z,7.70
2023-02-05T02:53:41.415Z,7.03
2023-02-05T02:56:12.192Z,7.20
2023-02-05T02:58:50.142Z,5.82
2023-02-05T03:01:21.162Z,5.53
2023-02-05T03:04:32.124Z,5.10
2023-02-05T03:07:24.306Z,6.10
2023-02-05T03:10:02.352Z,5.00
2023-02-05T03:12:29.554Z,5.13
2023-02-05T03:14:57.198Z,4.68
2023-02-05T03:17:25.527Z,4.70
2023-02-05T03:20:13.918Z,5.35
2023-02-05T03:22:40.936Z,4.23
2023-02-05T03:25:08.928Z,3.70
2023-02-05T03:27:36.386Z,4.22
2023-02-05T03:30:05.342Z,4.30
2023-02-05T03:32:50.910Z,3.60
2023-02-05T03:35:47.023Z,3.70
2023-02-05T03:38:26.059Z,4.00
2023-02-05T03:40:59.809Z,3.80
2023-02-05T03:43:53.201Z,4.10
2023-02-05T03:46:23.067Z,4.30
2023-02-05T03:49:03.526Z,3.75
2023-02-05T03:51:46.745Z,4.10
2023-02-05T03:54:36.659Z,3.60
2023-02-05T03:57:14.046Z,3.70
2023-02-05T03:59:42.282Z,3.90
2023-02-05T04:02:09.343Z,3.42
2023-02-05T04:04:36.294Z,3.72
2023-02-05T04:07:03.496Z,3.72
2023-02-05T04:09:30.343Z,3.58
2023-02-05T04:11:57.250Z,4.10
2023-02-05T04:14:24.117Z,3.60
2023-02-05T04:16:50.993Z,3.50
2023-02-05T04:19:17.883Z,3.40
2023-02-05T04:21:44.754Z,3.35
2023-02-05T04:24:11.586Z,3.40
2023-02-05T04:26:38.483Z,3.13
2023-02-05T04:29:05.430Z,3.10
2023-02-05T04:31:32.434Z,3.22
2023-02-05T04:33:59.470Z,3.10
2023-02-05T04:36:26.314Z,3.00
2023-02-05T04:38:53.186Z,3.00
2023-02-05T04:41:20.060Z,2.80
2023-02-05T04:43:46.978Z,3.30
2023-02-05T04:46:14.042Z,4.38
2023-02-05T04:48:40.900Z,4.30
2023-02-05T04:51:12.689Z,4.03
2023-02-05T04:53:39.962Z,4.35
2023-02-05T04:56:09.030Z,3.85
2023-02-05T04:58:36.229Z,4.20
2023-02-05T05:01:03.795Z,5.30
2023-02-05T05:03:30.854Z,4.90
2023-02-05T05:06:03.087Z,3.67
2023-02-05T05:08:30.018Z,4.00
2023-02-05T05:10:56.835Z,4.68
2023-02-05T05:13:23.779Z,3.70
2023-02-05T05:15:54.892Z,4.10
2023-02-05T05:18:21.910Z,4.32
2023-02-05T05:20:48.770Z,4.20
2023-02-05T05:23:15.676Z,4.40
2023-02-05T05:25:43.493Z,4.60
2023-02-05T05:28:10.833Z,4.00
2023-02-05T05:30:43.351Z,3.60
2023-02-05T05:33:11.105Z,4.20
2023-02-05T05:35:38.597Z,3.88
2023-02-05T05:38:05.824Z,4.18
2023-02-05T05:40:51.623Z,4.20
2023-02-05T05:43:39.246Z,4.63
2023-02-05T05:46:07.378Z,4.30
2023-02-05T05:48:34.818Z,4.15
2023-02-05T05:51:01.930Z,4.03
2023-02-05T05:53:29.234Z,4.40
2023-02-05T05:55:56.096Z,4.22
2023-02-05T05:58:23.927Z,4.50
2023-02-05T06:00:50.889Z,3.75
2023-02-05T06:03:17.858Z,4.40
2023-02-05T06:05:44.677Z,4.10
2023-02-05T06:08:11.518Z,4.28
2023-02-05T06:10:38.380Z,4.20
2023-02-05T06:13:05.429Z,4.15
2023-02-05T06:15:32.381Z,4.50
2023-02-05T06:18:00.005Z,4.30
2023-02-05T06:20:26.996Z,4.10
2023-02-05T06:22:53.841Z,4.40
2023-02-05T06:25:20.725Z,3.92
2023-02-05T06:27:47.567Z,3.72
2023-02-05T06:30:14.620Z,3.38
2023-02-05T06:32:41.467Z,4.03
2023-02-05T06:35:08.509Z,3.40
2023-02-05T06:37:46.837Z,3.38
2023-02-05T06:40:17.923Z,3.60
2023-02-05T06:42:45.487Z,3.40
2023-02-05T06:45:12.547Z,3.00
2023-02-05T06:47:39.474Z,3.33
2023-02-05T06:50:07.239Z,3.22
2023-02-05T06:52:34.163Z,3.33
2023-02-05T06:55:01.265Z,3.50
2023-02-05T06:57:28.501Z,3.20
2023-02-05T06:59:55.366Z,3.20
2023-02-05T07:02:22.285Z,3.95
2023-02-05T07:04:49.251Z,3.10
2023-02-05T07:07:17.177Z,3.17
2023-02-05T07:09:44.360Z,3.70
2023-02-05T07:12:11.348Z,3.43
2023-02-05T07:14:39.003Z,3.70
2023-02-05T07:17:06.004Z,3.80
2023-02-05T07:19:33.106Z,3.28
2023-02-05T07:22:00.190Z,3.70
2023-02-05T07:24:27.253Z,3.42
2023-02-05T07:26:54.135Z,3.55
2023-02-05T07:29:21.198Z,3.63
2023-02-05T07:31:50.613Z,3.65
2023-02-05T07:34:17.583Z,3.70
2023-02-05T07:36:44.669Z,3.45
2023-02-05T07:39:11.577Z,3.10
2023-02-05T07:41:38.637Z,3.20
2023-02-05T07:44:05.472Z,3.47
2023-02-05T07:46:32.457Z,3.53
2023-02-05T07:48:59.362Z,3.30
2023-02-05T07:51:26.867Z,3.40
2023-02-05T07:53:54.077Z,3.60
2023-02-05T07:56:25.771Z,3.72
2023-02-05T07:58:52.886Z,3.60
2023-02-05T08:01:19.731Z,4.10
2023-02-05T08:03:46.730Z,3.50
2023-02-05T08:06:15.570Z,3.72
2023-02-05T08:08:43.025Z,4.00
2023-02-05T08:11:17.961Z,5.47
2023-02-05T08:13:45.657Z,6.13
2023-02-05T08:16:15.596Z,5.10
2023-02-05T08:18:46.795Z,4.90
2023-02-05T08:21:13.676Z,5.40
2023-02-05T08:23:40.651Z,5.90
2023-02-05T08:26:07.591Z,5.40
2023-02-05T08:28:34.675Z,5.53
2023-02-05T08:31:01.607Z,5.65
2023-02-05T08:33:28.487Z,6.70
2023-02-05T08:35:57.471Z,6.10
2023-02-05T08:38:24.282Z,7.00
2023-02-05T08:40:51.349Z,6.80
2023-02-05T08:43:18.159Z,7.20
2023-02-05T08:45:48.014Z,6.75
2023-02-05T08:48:15.426Z,7.10
2023-02-05T08:50:46.164Z,7.28
2023-02-05T08:53:13.001Z,7.17
2023-02-05T08:55:39.944Z,6.80
2023-02-05T08:58:06.830Z,7.32
2023-02-05T09:00:37.875Z,6.90
2023-02-05T09:03:04.837Z,7.00
2023-02-05T09:05:31.920Z,7.35
2023-02-05T09:07:59.232Z,6.90
2023-02-05T09:10:26.192Z,6.65
2023-02-05T09:12:53.164Z,6.95
2023-02-05T09:15:20.017Z,6.50
2023-02-05T09:17:47.637Z,6.90
2023-02-05T09:20:14.656Z,8.10
2023-02-05T09:22:41.633Z,8.57
2023-02-05T09:25:08.682Z,7.65
2023-02-05T09:27:35.616Z,8.70
2023-02-05T09:30:02.493Z,7.90
2023-02-05T09:32:29.389Z,7.70
2023-02-05T09:34:56.257Z,7.90
2023-02-05T09:37:23.182Z,7.43
2023-02-05T09:40:19.387Z,7.90
2023-02-05T09:43:13.214Z,7.30
2023-02-05T09:45:52.222Z,6.72
2023-02-05T09:48:34.446Z,7.30
2023-02-05T09:51:02.364Z,6.68
2023-02-05T09:53:35.121Z,7.40
2023-02-05T09:56:04.753Z,6.70
2023-02-05T09:58:36.024Z,8.27
2023-02-05T10:01:12.900Z,6.80
2023-02-05T10:03:47.072Z,6.50
2023-02-05T10:06:27.284Z,6.57
2023-02-05T10:09:37.847Z,8.02
2023-02-05T10:12:19.628Z,8.10
2023-02-05T10:14:59.826Z,7.55
2023-02-05T10:17:48.152Z,8.70
2023-02-05T10:20:33.838Z,8.20
2023-02-05T10:23:24.459Z,8.30
2023-02-05T10:26:03.830Z,12.93
2023-02-05T10:29:21.597Z,12.13
2023-02-05T10:32:07.527Z,10.32
2023-02-05T10:34:37.166Z,13.15
2023-02-05T10:37:11.966Z,11.60
2023-02-05T10:39:39.202Z,12.00
2023-02-05T10:42:21.633Z,13.10
2023-02-05T10:44:52.816Z,11.50
2023-02-05T10:47:29.964Z,10.50
2023-02-05T10:50:43.324Z,9.90
2023-02-05T10:53:10.247Z,9.43
2023-02-05T10:55:37.893Z,7.83
2023-02-05T10:58:24.564Z,9.15
2023-02-05T11:00:51.830Z,10.05
2023-02-05T11:03:22.258Z,10.48
2023-02-05T11:05:50.348Z,15.00
2023-02-05T11:08:43.966Z,11.73
2023-02-05T11:11:20.007Z,10.40
2023-02-05T11:13:53.167Z,10.37
2023-02-05T11:16:21.056Z,9.57
2023-02-05T11:19:00.133Z,7.43
2023-02-05T11:21:48.656Z,7.45
2023-02-05T11:24:36.906Z,6.40
2023-02-05T11:27:15.967Z,6.60
2023-02-05T11:29:43.785Z,6.00
2023-02-05T11:32:42.898Z,6.53
2023-02-05T11:35:20.455Z,6.00
2023-02-05T11:38:09.376Z,6.45
2023-02-05T11:40:37.737Z,6.80
2023-02-05T11:43:07.862Z,6.85
2023-02-05T11:45:38.831Z,6.95
2023-02-05T11:48:26.544Z,7.65
2023-02-05T11:50:53.613Z,6.88
2023-02-05T11:53:21.035Z,7.70
2023-02-05T11:55:54.722Z,7.90
2023-02-05T11:58:36.247Z,7.70
2023-02-05T12:01:20.094Z,6.93
2023-02-05T12:04:23.795Z,8.55
2023-02-05T12:06:57.829Z,8.75
2023-02-05T12:09:27.433Z,8.45
2023-02-05T12:12:29.261Z,8.80
2023-02-05T12:15:31.672Z,8.60
2023-02-05T12:18:14.160Z,8.82
2023-02-05T12:20:58.465Z,8.83
2023-02-05T12:23:37.268Z,9.02
2023-02-05T12:26:25.291Z,7.50
2023-02-05T12:29:15.094Z,13.90
2023-02-05T12:31:48.840Z,10.90
2023-02-05T12:34:36.778Z,12.05
2023-02-05T12:37:28.940Z,14.25
2023-02-05T12:40:23.610Z,6.90
2023-02-05T12:42:56.795Z,8.55
2023-02-05T12:45:29.350Z,10.00
2023-02-05T12:48:17.514Z,10.65
2023-02-05T12:50:54.355Z,7.40
2023-02-05T12:53:48.980Z,6.50
2023-02-05T12:56:44.954Z,8.60
2023-02-05T12:59:18.513Z,8.75
2023-02-05T13:01:53.967Z,11.98
2023-02-05T13:04:32.517Z,15.00
2023-02-05T13:07:26.488Z,11.90
2023-02-05T13:10:19.402Z,8.90
2023-02-05T13:12:51.229Z,7.05
2023-02-05T13:15:18.254Z,7.40
2023-02-05T13:17:59.144Z,7.95
2023-02-05T13:20:56.526Z,7.70
2023-02-05T13:23:42.389Z,8.00
2023-02-05T13:26:25.408Z,8.37
2023-02-05T13:29:02.050Z,9.00
2023-02-05T13:31:39.665Z,10.47
2023-02-05T13:34:09.185Z,9.13
2023-02-05T13:37:00.686Z,7.85
2023-02-05T13:39:51.519Z,6.20
2023-02-05T13:42:47.257Z,5.95
2023-02-05T13:45:14.089Z,8.65
2023-02-05T13:47:44.015Z,11.40
2023-02-05T13:50:43.131Z,11.75
2023-02-05T13:53:15.518Z,11.98
2023-02-05T13:56:00.765Z,12.47
2023-02-05T13:58:32.399Z,11.10
2023-02-05T14:01:24.126Z,10.90
2023-02-05T14:04:08.830Z,11.75
2023-02-05T14:06:40.717Z,11.43
2023-02-05T14:09:22.262Z,12.10
2023-02-05T14:11:58.603Z,11.20
2023-02-05T14:14:28.447Z,13.30
2023-02-05T14:16:57.069Z,14.00
2023-02-05T14:19:48.882Z,14.73
2023-02-05T14:22:42.269Z,14.07
2023-02-05T14:25:41.665Z,14.60
2023-02-05T14:28:20.468Z,15.80
2023-02-05T14:30:50.345Z,12.90
2023-02-05T14:33:35.386Z,13.45
2023-02-05T14:36:18.215Z,11.88
2023-02-05T14:38:53.284Z,12.45
2023-02-05T14:41:31.395Z,12.27
2023-02-05T14:44:12.678Z,10.48
2023-02-05T14:47:03.245Z,12.63
2023-02-05T14:49:33.151Z,11.80
2023-02-05T14:52:03.619Z,9.50
2023-02-05T14:55:02.072Z,9.35
2023-02-05T14:57:51.191Z,10.27
2023-02-05T15:00:27.129Z,11.77
2023-02-05T15:03:16.750Z,12.93
2023-02-05T15:05:49.118Z,11.18
2023-02-05T15:08:37.830Z,9.87
2023-02-05T15:11:25.994Z,11.45
2023-02-05T15:14:21.321Z,9.80
2023-02-05T15:17:10.014Z,8.82
2023-02-05T15:19:57.437Z,11.60
2023-02-05T15:22:26.587Z,8.52
2023-02-05T15:24:54.694Z,8.07
2023-02-05T15:27:42.079Z,8.90
2023-02-05T15:30:14.847Z,10.27
2023-02-05T15:32:56.388Z,8.30
2023-02-05T15:35:26.875Z,8.00
2023-02-05T15:37:58.447Z,8.20
2023-02-05T15:40:29.131Z,8.20
2023-02-05T15:43:00.047Z,9.50
2023-02-05T15:45:29.219Z,8.93
2023-02-05T15:48:16.715Z,9.10
2023-02-05T15:50:58.561Z,9.60
2023-02-05T15:53:39.023Z,11.48
2023-02-05T15:56:20.283Z,9.32
2023-02-05T15:59:11.509Z,9.95
2023-02-05T16:01:46.921Z,8.00
2023-02-05T16:04:40.792Z,7.57
2023-02-05T16:07:18.317Z,7.33
2023-02-05T16:09:53.926Z,8.82
2023-02-05T16:12:21.212Z,8.45
2023-02-05T16:15:07.474Z,7.97
2023-02-05T16:17:48.749Z,8.63
2023-02-05T16:20:39.582Z,11.33
2023-02-05T16:23:12.809Z,9.40
2023-02-05T16:25:45.649Z,9.48
2023-02-05T16:28:42.494Z,10.35
2023-02-05T16:31:17.880Z,11.45
2023-02-05T16:33:52.566Z,11.50
2023-02-05T16:36:23.700Z,15.10
2023-02-05T16:39:02.206Z,28.90
2023-02-05T16:41:33.227Z,12.27
2023-02-05T16:44:03.802Z,9.40
2023-02-05T16:46:32.038Z,9.60
2023-02-05T16:49:01.544Z,11.30
2023-02-05T16:51:35.918Z,10.35
2023-02-05T16:54:20.052Z,8.75
2023-02-05T16:57:08.594Z,10.73
2023-02-05T16:59:51.184Z,9.88
2023-02-05T17:02:29.562Z,10.10
2023-02-05T17:04:57.818Z,10.87
2023-02-05T17:07:25.443Z,10.00
2023-02-05T17:09:52.914Z,10.00
2023-02-05T17:12:19.903Z,10.90
2023-02-05T17:15:12.855Z,11.57
2023-02-05T17:17:50.990Z,11.83
2023-02-05T17:20:20.247Z,12.18
2023-02-05T17:23:05.402Z,14.20
2023-02-05T17:25:39.462Z,13.50
2023-02-05T17:28:11.281Z,21.15
2023-02-05T17:30:38.481Z,15.43
2023-02-05T17:33:20.244Z,14.27
2023-02-05T17:35:47.565Z,12.73
2023-02-05T17:38:15.633Z,13.05
2023-02-05T17:40:43.421Z,14.55
2023-02-05T17:43:10.597Z,15.80
2023-02-05T17:45:40.014Z,16.15
2023-02-05T17:48:08.739Z,15.07
2023-02-05T17:50:37.050Z,14.43
2023-02-05T17:53:05.589Z,16.05
2023-02-05T17:55:32.765Z,15.30
2023-02-05T17:57:59.709Z,17.02
2023-02-05T18:00:28.566Z,16.83
2023-02-05T18:02:55.534Z,18.10
2023-02-05T18:05:23.516Z,16.75
2023-02-05T18:07:58.441Z,16.52
2023-02-05T18:10:34.180Z,16.20
2023-02-05T18:13:01.319Z,15.80
2023-02-05T18:15:31.792Z,20.25
2023-02-05T18:17:58.761Z,20.00
2023-02-05T18:20:25.785Z,16.30
2023-02-05T18:22:52.725Z,16.23
2023-02-05T18:25:19.709Z,16.90
2023-02-05T18:27:48.174Z,15.32
2023-02-05T18:30:15.291Z,14.38
2023-02-05T18:32:43.142Z,14.30
2023-02-05T18:35:14.357Z,14.50
2023-02-05T18:37:43.140Z,16.77
2023-02-05T18:40:10.986Z,16.88
2023-02-05T18:42:37.930Z,15.18
2023-02-05T18:45:05.152Z,15.75
2023-02-05T18:47:32.219Z,15.03
2023-02-05T18:49:59.218Z,15.07
2023-02-05T18:52:27.291Z,17.20
2023-02-05T18:54:54.237Z,16.95
2023-02-05T18:57:21.366Z,18.80
2023-02-05T18:59:48.742Z,17.57
2023-02-05T19:02:15.908Z,16.88
2023-02-05T19:04:42.991Z,18.33
2023-02-05T19:07:09.885Z,18.20
2023-02-05T19:09:37.258Z,17.42
2023-02-05T19:12:04.356Z,18.40
2023-02-05T19:14:31.678Z,17.38
2023-02-05T19:16:58.564Z,17.40
2023-02-05T19:19:26.043Z,19.33
2023-02-05T19:21:54.639Z,21.17
2023-02-05T19:24:22.131Z,22.23
2023-02-05T19:26:50.904Z,18.33
2023-02-05T19:29:20.135Z,18.00
2023-02-05T19:31:47.638Z,16.23
2023-02-05T19:34:15.302Z,15.10
2023-02-05T19:36:42.939Z,14.95
2023-02-05T19:39:14.075Z,14.88
2023-02-05T19:41:44.124Z,14.45
2023-02-05T19:44:11.098Z,14.55
2023-02-05T19:46:44.163Z,16.30
2023-02-05T19:49:19.807Z,15.02
2023-02-05T19:51:52.206Z,14.27
2023-02-05T19:54:21.572Z,14.10
2023-02-05T19:56:49.797Z,14.40
2023-02-05T19:59:17.283Z,12.98
2023-02-05T20:01:44.894Z,13.90
2023-02-05T20:04:18.149Z,12.73
2023-02-05T20:06:48.648Z,12.70
2023-02-05T20:09:16.772Z,12.90
2023-02-05T20:11:47.128Z,13.05
2023-02-05T20:14:15.026Z,13.23
2023-02-05T20:16:42.549Z,14.48
2023-02-05T20:19:14.415Z,15.77
2023-02-05T20:21:41.691Z,16.10
2023-02-05T20:24:09.610Z,16.27
2023-02-05T20:26:37.603Z,18.27
2023-02-05T20:29:24.008Z,19.20
2023-02-05T20:31:52.714Z,18.42
2023-02-05T20:34:25.992Z,18.42
2023-02-05T20:37:04.772Z,15.88
2023-02-05T20:39:34.774Z,16.65
2023-02-05T20:42:02.460Z,16.25
2023-02-05T20:44:32.132Z,14.63
2023-02-05T20:46:59.145Z,14.07
2023-02-05T20:49:26.458Z,13.93
2023-02-05T20:51:54.057Z,13.37
2023-02-05T20:54:22.463Z,13.07
2023-02-05T20:56:59.686Z,12.70
2023-02-05T20:59:28.354Z,8.30
2023-02-05T21:01:55.531Z,8.48
2023-02-05T21:04:22.595Z,7.57
2023-02-05T21:06:49.703Z,7.10
2023-02-05T21:09:17.183Z,7.20
2023-02-05T21:11:44.099Z,6.32
2023-02-05T21:14:11.236Z,8.10
2023-02-05T21:16:39.145Z,7.50
2023-02-05T21:19:08.075Z,8.52
2023-02-05T21:21:36.782Z,7.60
2023-02-05T21:24:06.802Z,6.05
2023-02-05T21:26:35.103Z,5.50
2023-02-05T21:29:05.426Z,7.35
2023-02-05T21:31:38.756Z,6.32
2023-02-05T21:34:08.180Z,4.72
2023-02-05T21:36:35.174Z,4.70
2023-02-05T21:39:02.733Z,4.53
2023-02-05T21:41:29.784Z,4.60
2023-02-05T21:43:59.417Z,5.85
2023-02-05T21:46:29.226Z,5.47
2023-02-05T21:48:57.584Z,6.03
2023-02-05T21:51:27.123Z,6.00
2023-02-05T21:53:57.388Z,7.05
2023-02-05T21:56:27.001Z,7.05
2023-02-05T21:58:54.237Z,6.40
2023-02-05T22:01:27.040Z,6.10
2023-02-05T22:03:57.176Z,6.50
2023-02-05T22:06:26.108Z,5.72
2023-02-05T22:08:53.306Z,6.28
2023-02-05T22:11:22.115Z,6.70
2023-02-05T22:13:51.037Z,6.28
2023-02-05T22:16:24.313Z,6.25
2023-02-05T22:18:52.071Z,5.90
2023-02-05T22:21:24.666Z,5.80
2023-02-05T22:23:53.454Z,5.05
2023-02-05T22:26:23.907Z,4.80
2023-02-05T22:28:51.218Z,5.05
2023-02-05T22:31:20.541Z,4.40
2023-02-05T22:33:49.253Z,5.57
2023-02-05T22:36:18.757Z,5.60
2023-02-05T22:38:46.069Z,5.00
2023-02-05T22:41:16.897Z,6.53
2023-02-05T22:43:43.881Z,6.20
2023-02-05T22:46:22.214Z,5.35
2023-02-05T22:48:50.283Z,5.40
2023-02-05T22:51:22.093Z,4.90
2023-02-05T22:53:49.404Z,5.00
2023-02-05T22:56:17.490Z,5.30
2023-02-05T22:58:46.979Z,6.15
2023-02-05T23:01:25.524Z,6.20
2023-02-05T23:03:52.876Z,8.15
2023-02-05T23:06:31.658Z,7.60
2023-02-05T23:09:01.013Z,7.90
2023-02-05T23:11:29.806Z,8.52
2023-02-05T23:13:57.914Z,8.32
2023-02-05T23:16:27.747Z,8.53
2023-02-05T23:18:58.404Z,9.68
2023-02-05T23:21:27.353Z,9.32
2023-02-05T23:23:54.376Z,9.95
2023-02-05T23:26:26.931Z,10.15
2023-02-05T23:28:55.135Z,10.68
2023-02-05T23:31:23.230Z,10.80
2023-02-05T23:33:50.699Z,9.60
2023-02-05T23:36:17.707Z,10.05
2023-02-05T23:38:44.908Z,10.40
2023-02-05T23:41:12.318Z,11.00
2023-02-05T23:43:39.683Z,9.95
2023-02-05T23:46:07.575Z,10.27
2023-02-05T23:48:34.814Z,11.07
2023-02-05T23:51:01.747Z,11.05
2023-02-05T23:53:28.810Z,11.55
2023-02-05T23:55:55.768Z,11.75
2023-02-05T23:58:25.924Z,11.70
